sensor_id;sensor_type;location;lat;lon;timestamp;noise_LAeq;noise_LA_min;noise_LA_max;noise_LA01;noise_LA95
56099;Laerm;44276;49.534;6.378;2023-07-13T00:01:20;41.53;37.88;57.60;;
56099;Laerm;44276;49.534;6.378;2023-07-13T00:03:53;41.59;38.02;51.73;;
56099;Laerm;44276;49.534;6.378;2023-07-13T00:06:22;40.77;38.05;48.69;;
56099;Laerm;44276;49.534;6.378;2023-07-13T00:08:50;41.85;38.05;52.00;;
56099;Laerm;44276;49.534;6.378;2023-07-13T00:11:19;40.95;38.37;54.62;;
56099;Laerm;44276;49.534;6.378;2023-07-13T00:13:47;43.88;38.37;61.53;;
56099;Laerm;44276;49.534;6.378;2023-07-13T00:16:15;41.20;38.52;48.78;;
56099;Laerm;44276;49.534;6.378;2023-07-13T00:18:43;40.96;38.37;42.82;;
56099;Laerm;44276;49.534;6.378;2023-07-13T00:21:13;41.02;38.67;43.63;;
56099;Laerm;44276;49.534;6.378;2023-07-13T00:23:42;40.98;38.81;42.65;;
56099;Laerm;44276;49.534;6.378;2023-07-13T00:26:12;41.03;38.52;44.97;;
56099;Laerm;44276;49.534;6.378;2023-07-13T00:28:41;40.94;38.52;46.10;;
56099;Laerm;44276;49.534;6.378;2023-07-13T00:31:11;40.97;38.67;44.19;;
56099;Laerm;44276;49.534;6.378;2023-07-13T00:33:41;41.05;38.81;44.94;;
56099;Laerm;44276;49.534;6.378;2023-07-13T00:36:11;42.76;39.08;55.24;;
56099;Laerm;44276;49.534;6.378;2023-07-13T00:38:40;41.11;38.81;43.09;;
56099;Laerm;44276;49.534;6.378;2023-07-13T00:41:09;42.35;38.52;49.14;;
56099;Laerm;44276;49.534;6.378;2023-07-13T00:43:37;42.48;38.95;58.71;;
56099;Laerm;44276;49.534;6.378;2023-07-13T00:46:24;43.26;38.81;60.89;;
56099;Laerm;44276;49.534;6.378;2023-07-13T00:48:57;53.41;37.52;72.05;;
56099;Laerm;44276;49.534;6.378;2023-07-13T00:51:39;47.31;38.67;65.22;;
56099;Laerm;44276;49.534;6.378;2023-07-13T00:54:14;48.60;38.52;67.30;;
56099;Laerm;44276;49.534;6.378;2023-07-13T00:56:45;50.95;36.91;69.41;;
56099;Laerm;44276;49.534;6.378;2023-07-13T00:59:17;58.28;38.52;76.56;;
56099;Laerm;44276;49.534;6.378;2023-07-13T01:01:47;55.88;35.94;77.21;;
56099;Laerm;44276;49.534;6.378;2023-07-13T01:04:16;50.41;39.46;67.69;;
56099;Laerm;44276;49.534;6.378;2023-07-13T01:06:46;52.26;39.08;68.88;;
56099;Laerm;44276;49.534;6.378;2023-07-13T01:09:15;52.39;38.37;70.40;;
56099;Laerm;44276;49.534;6.378;2023-07-13T01:11:45;57.20;36.91;74.61;;
56099;Laerm;44276;49.534;6.378;2023-07-13T01:14:14;55.64;38.95;72.79;;
56099;Laerm;44276;49.534;6.378;2023-07-13T01:16:46;56.55;39.08;74.74;;
56099;Laerm;44276;49.534;6.378;2023-07-13T01:19:32;54.52;36.20;71.15;;
56099;Laerm;44276;49.534;6.378;2023-07-13T01:22:07;55.13;38.95;73.39;;
56099;Laerm;44276;49.534;6.378;2023-07-13T01:24:42;52.01;39.34;71.48;;
56099;Laerm;44276;49.534;6.378;2023-07-13T01:27:14;54.61;39.46;70.80;;
56099;Laerm;44276;49.534;6.378;2023-07-13T01:29:44;53.28;39.34;68.80;;
56099;Laerm;44276;49.534;6.378;2023-07-13T01:32:17;50.45;38.67;68.00;;
56099;Laerm;44276;49.534;6.378;2023-07-13T01:34:52;47.19;38.67;65.15;;
56099;Laerm;44276;49.534;6.378;2023-07-13T01:37:24;44.24;38.52;61.64;;
56099;Laerm;44276;49.534;6.378;2023-07-13T01:39:53;45.30;38.52;65.99;;
56099;Laerm;44276;49.534;6.378;2023-07-13T01:42:21;44.13;38.95;62.41;;
56099;Laerm;44276;49.534;6.378;2023-07-13T01:44:49;44.55;39.08;62.69;;
56099;Laerm;44276;49.534;6.378;2023-07-13T01:47:17;44.80;39.34;61.93;;
56099;Laerm;44276;49.534;6.378;2023-07-13T01:49:45;45.43;39.08;61.22;;
56099;Laerm;44276;49.534;6.378;2023-07-13T01:52:14;46.24;38.67;60.01;;
56099;Laerm;44276;49.534;6.378;2023-07-13T01:54:43;47.94;37.52;64.66;;
56099;Laerm;44276;49.534;6.378;2023-07-13T01:57:11;49.35;38.05;64.21;;
56099;Laerm;44276;49.534;6.378;2023-07-13T01:59:40;51.97;36.45;67.44;;
56099;Laerm;44276;49.534;6.378;2023-07-13T02:02:08;50.82;37.88;63.50;;
56099;Laerm;44276;49.534;6.378;2023-07-13T02:04:36;48.58;37.12;61.80;;
56099;Laerm;44276;49.534;6.378;2023-07-13T02:07:05;47.89;38.67;60.59;;
56099;Laerm;44276;49.534;6.378;2023-07-13T02:09:33;49.37;38.52;63.00;;
56099;Laerm;44276;49.534;6.378;2023-07-13T02:12:04;48.93;38.52;62.83;;
56099;Laerm;44276;49.534;6.378;2023-07-13T02:14:32;44.95;39.21;59.44;;
56099;Laerm;44276;49.534;6.378;2023-07-13T02:17:00;45.27;39.46;58.70;;
56099;Laerm;44276;49.534;6.378;2023-07-13T02:19:28;45.59;39.08;55.29;;
56099;Laerm;44276;49.534;6.378;2023-07-13T02:21:57;45.16;39.08;62.35;;
56099;Laerm;44276;49.534;6.378;2023-07-13T02:24:25;45.14;39.21;54.14;;
56099;Laerm;44276;49.534;6.378;2023-07-13T02:26:54;44.83;38.37;54.74;;
56099;Laerm;44276;49.534;6.378;2023-07-13T02:29:23;44.82;38.81;58.43;;
56099;Laerm;44276;49.534;6.378;2023-07-13T02:31:52;44.78;38.21;56.14;;
56099;Laerm;44276;49.534;6.378;2023-07-13T02:34:20;44.42;38.52;54.42;;
56099;Laerm;44276;49.534;6.378;2023-07-13T02:36:48;43.57;38.81;55.68;;
56099;Laerm;44276;49.534;6.378;2023-07-13T02:39:16;44.98;38.81;57.05;;
56099;Laerm;44276;49.534;6.378;2023-07-13T02:41:45;45.17;39.70;57.14;;
56099;Laerm;44276;49.534;6.378;2023-07-13T02:44:13;44.90;38.95;56.95;;
56099;Laerm;44276;49.534;6.378;2023-07-13T02:46:43;45.63;38.81;57.54;;
56099;Laerm;44276;49.534;6.378;2023-07-13T02:49:11;46.22;38.95;58.09;;
56099;Laerm;44276;49.534;6.378;2023-07-13T02:51:39;46.45;38.81;56.10;;
56099;Laerm;44276;49.534;6.378;2023-07-13T02:54:09;45.02;38.81;54.96;;
56099;Laerm;44276;49.534;6.378;2023-07-13T02:56:38;45.46;39.08;53.98;;
56099;Laerm;44276;49.534;6.378;2023-07-13T02:59:07;46.76;38.52;58.65;;
56099;Laerm;44276;49.534;6.378;2023-07-13T03:01:35;47.27;38.05;60.76;;
56099;Laerm;44276;49.534;6.378;2023-07-13T03:04:05;48.41;38.21;62.88;;
56099;Laerm;44276;49.534;6.378;2023-07-13T03:06:33;50.46;38.21;62.56;;
56099;Laerm;44276;49.534;6.378;2023-07-13T03:09:02;43.22;39.34;65.42;;
56099;Laerm;44276;49.534;6.378;2023-07-13T03:11:30;42.65;39.58;53.95;;
56099;Laerm;44276;49.534;6.378;2023-07-13T03:13:58;42.47;39.92;50.66;;
56099;Laerm;44276;49.534;6.378;2023-07-13T03:16:27;42.55;39.58;54.28;;
56099;Laerm;44276;49.534;6.378;2023-07-13T03:18:55;42.49;39.70;60.07;;
56099;Laerm;44276;49.534;6.378;2023-07-13T03:21:24;42.19;38.95;46.97;;
56099;Laerm;44276;49.534;6.378;2023-07-13T03:23:52;42.26;39.08;49.58;;
56099;Laerm;44276;49.534;6.378;2023-07-13T03:26:21;43.04;39.70;56.06;;
56099;Laerm;44276;49.534;6.378;2023-07-13T03:28:49;42.29;38.67;60.25;;
56099;Laerm;44276;49.534;6.378;2023-07-13T03:31:20;42.60;39.70;57.36;;
56099;Laerm;44276;49.534;6.378;2023-07-13T03:33:49;42.49;39.70;48.18;;
56099;Laerm;44276;49.534;6.378;2023-07-13T03:36:19;43.33;39.08;52.78;;
56099;Laerm;44276;49.534;6.378;2023-07-13T03:38:52;42.40;39.58;49.18;;
56099;Laerm;44276;49.534;6.378;2023-07-13T03:41:22;42.46;39.46;47.10;;
56099;Laerm;44276;49.534;6.378;2023-07-13T03:43:51;42.85;39.34;50.94;;
56099;Laerm;44276;49.534;6.378;2023-07-13T03:46:20;42.62;39.34;49.79;;
56099;Laerm;44276;49.534;6.378;2023-07-13T03:48:48;43.34;39.46;50.83;;
56099;Laerm;44276;49.534;6.378;2023-07-13T03:51:17;42.86;39.08;51.03;;
56099;Laerm;44276;49.534;6.378;2023-07-13T03:53:48;42.47;38.67;47.95;;
56099;Laerm;44276;49.534;6.378;2023-07-13T03:56:18;43.11;39.92;49.96;;
56099;Laerm;44276;49.534;6.378;2023-07-13T03:58:48;42.43;39.08;47.40;;
56099;Laerm;44276;49.534;6.378;2023-07-13T04:01:20;42.81;40.13;49.44;;
56099;Laerm;44276;49.534;6.378;2023-07-13T04:03:49;43.00;40.08;50.56;;
56099;Laerm;44276;49.534;6.378;2023-07-13T04:06:20;42.60;40.13;47.77;;
56099;Laerm;44276;49.534;6.378;2023-07-13T04:08:54;42.95;39.58;47.02;;
56099;Laerm;44276;49.534;6.378;2023-07-13T04:11:27;43.47;40.03;54.41;;
56099;Laerm;44276;49.534;6.378;2023-07-13T04:13:56;44.41;39.70;56.30;;
56099;Laerm;44276;49.534;6.378;2023-07-13T04:16:25;45.16;39.92;57.15;;
56099;Laerm;44276;49.534;6.378;2023-07-13T04:18:55;43.34;39.70;55.92;;
56099;Laerm;44276;49.534;6.378;2023-07-13T04:21:28;45.03;39.81;58.57;;
56099;Laerm;44276;49.534;6.378;2023-07-13T04:23:58;46.13;40.23;58.82;;
56099;Laerm;44276;49.534;6.378;2023-07-13T04:26:26;44.21;39.34;58.02;;
56099;Laerm;44276;49.534;6.378;2023-07-13T04:28:56;43.14;39.70;49.27;;
56099;Laerm;44276;49.534;6.378;2023-07-13T04:31:24;43.15;39.81;48.84;;
56099;Laerm;44276;49.534;6.378;2023-07-13T04:33:52;42.99;39.81;59.38;;
56099;Laerm;44276;49.534;6.378;2023-07-13T04:36:20;43.32;39.92;53.60;;
56099;Laerm;44276;49.534;6.378;2023-07-13T04:38:48;44.78;39.46;56.75;;
56099;Laerm;44276;49.534;6.378;2023-07-13T04:41:18;49.13;39.92;73.71;;
56099;Laerm;44276;49.534;6.378;2023-07-13T04:43:46;46.60;39.08;61.26;;
56099;Laerm;44276;49.534;6.378;2023-07-13T04:46:16;46.42;40.33;59.31;;
56099;Laerm;44276;49.534;6.378;2023-07-13T04:48:46;44.98;39.70;55.81;;
56099;Laerm;44276;49.534;6.378;2023-07-13T04:51:14;43.17;39.21;52.10;;
56099;Laerm;44276;49.534;6.378;2023-07-13T04:53:43;43.70;40.33;50.04;;
56099;Laerm;44276;49.534;6.378;2023-07-13T04:56:11;42.86;39.21;51.57;;
56099;Laerm;44276;49.534;6.378;2023-07-13T04:58:42;43.34;39.81;51.18;;
56099;Laerm;44276;49.534;6.378;2023-07-13T05:01:10;42.81;39.70;48.61;;
56099;Laerm;44276;49.534;6.378;2023-07-13T05:03:39;46.44;39.46;66.36;;
56099;Laerm;44276;49.534;6.378;2023-07-13T05:06:08;44.16;38.67;64.65;;
56099;Laerm;44276;49.534;6.378;2023-07-13T05:08:37;42.62;38.67;47.93;;
56099;Laerm;44276;49.534;6.378;2023-07-13T05:11:06;43.21;39.46;46.95;;
56099;Laerm;44276;49.534;6.378;2023-07-13T05:13:34;43.72;39.08;50.48;;
56099;Laerm;44276;49.534;6.378;2023-07-13T05:16:06;43.87;40.13;51.13;;
56099;Laerm;44276;49.534;6.378;2023-07-13T05:18:35;44.57;40.43;51.67;;
56099;Laerm;44276;49.534;6.378;2023-07-13T05:21:10;45.83;40.03;55.03;;
56099;Laerm;44276;49.534;6.378;2023-07-13T05:23:39;44.50;39.81;51.18;;
56099;Laerm;44276;49.534;6.378;2023-07-13T05:26:08;45.14;39.81;54.50;;
56099;Laerm;44276;49.534;6.378;2023-07-13T05:28:37;43.20;38.67;52.99;;
56099;Laerm;44276;49.534;6.378;2023-07-13T05:31:08;43.12;38.21;50.56;;
56099;Laerm;44276;49.534;6.378;2023-07-13T05:33:37;43.31;39.21;51.46;;
56099;Laerm;44276;49.534;6.378;2023-07-13T05:36:05;43.18;39.81;53.74;;
56099;Laerm;44276;49.534;6.378;2023-07-13T05:38:34;43.49;38.67;53.74;;
56099;Laerm;44276;49.534;6.378;2023-07-13T05:41:02;43.57;39.34;50.84;;
56099;Laerm;44276;49.534;6.378;2023-07-13T05:43:32;44.85;39.46;54.12;;
56099;Laerm;44276;49.534;6.378;2023-07-13T05:46:00;43.69;40.53;54.39;;
56099;Laerm;44276;49.534;6.378;2023-07-13T05:48:30;44.95;39.70;57.76;;
56099;Laerm;44276;49.534;6.378;2023-07-13T05:50:58;43.55;40.62;53.27;;
56099;Laerm;44276;49.534;6.378;2023-07-13T05:53:26;44.48;39.81;54.37;;
56099;Laerm;44276;49.534;6.378;2023-07-13T05:55:55;42.49;37.12;55.56;;
56099;Laerm;44276;49.534;6.378;2023-07-13T05:58:26;42.72;36.69;50.09;;
56099;Laerm;44276;49.534;6.378;2023-07-13T06:01:01;44.89;38.05;60.33;;
56099;Laerm;44276;49.534;6.378;2023-07-13T06:03:32;47.50;39.34;59.94;;
56099;Laerm;44276;49.534;6.378;2023-07-13T06:06:01;45.85;38.95;59.52;;
56099;Laerm;44276;49.534;6.378;2023-07-13T06:08:30;45.85;36.98;53.71;;
56099;Laerm;44276;49.534;6.378;2023-07-13T06:11:03;44.79;37.12;56.87;;
56099;Laerm;44276;49.534;6.378;2023-07-13T06:13:32;45.55;36.69;55.28;;
56099;Laerm;44276;49.534;6.378;2023-07-13T06:16:01;45.88;37.12;53.46;;
56099;Laerm;44276;49.534;6.378;2023-07-13T06:18:34;47.20;39.08;67.26;;
56099;Laerm;44276;49.534;6.378;2023-07-13T06:21:06;46.71;38.52;59.47;;
56099;Laerm;44276;49.534;6.378;2023-07-13T06:23:36;46.07;34.69;63.47;;
56099;Laerm;44276;49.534;6.378;2023-07-13T06:26:05;46.01;38.32;62.62;;
56099;Laerm;44276;49.534;6.378;2023-07-13T06:28:34;46.71;36.45;62.00;;
56099;Laerm;44276;49.534;6.378;2023-07-13T06:31:06;47.14;40.33;61.34;;
56099;Laerm;44276;49.534;6.378;2023-07-13T06:33:37;45.20;38.95;59.53;;
56099;Laerm;44276;49.534;6.378;2023-07-13T06:36:07;44.55;40.53;56.50;;
56099;Laerm;44276;49.534;6.378;2023-07-13T06:38:37;46.40;37.12;63.47;;
56099;Laerm;44276;49.534;6.378;2023-07-13T06:41:07;46.49;40.53;62.52;;
56099;Laerm;44276;49.534;6.378;2023-07-13T06:43:36;49.89;41.82;63.13;;
56099;Laerm;44276;49.534;6.378;2023-07-13T06:46:04;51.04;40.54;71.59;;
56099;Laerm;44276;49.534;6.378;2023-07-13T06:48:32;51.70;38.95;72.20;;
56099;Laerm;44276;49.534;6.378;2023-07-13T06:51:02;52.60;37.12;72.99;;
56099;Laerm;44276;49.534;6.378;2023-07-13T06:53:31;52.93;36.91;73.88;;
56099;Laerm;44276;49.534;6.378;2023-07-13T06:55:59;54.22;35.36;72.93;;
56099;Laerm;44276;49.534;6.378;2023-07-13T06:58:27;49.81;38.95;73.89;;
56099;Laerm;44276;49.534;6.378;2023-07-13T07:00:55;49.75;40.62;69.32;;
56099;Laerm;44276;49.534;6.378;2023-07-13T07:03:23;46.73;38.81;67.24;;
56099;Laerm;44276;49.534;6.378;2023-07-13T07:05:51;46.30;38.05;63.54;;
56099;Laerm;44276;49.534;6.378;2023-07-13T07:08:21;46.94;38.81;61.12;;
56099;Laerm;44276;49.534;6.378;2023-07-13T07:10:49;47.61;41.14;64.36;;
56099;Laerm;44276;49.534;6.378;2023-07-13T07:13:21;46.67;37.52;62.97;;
56099;Laerm;44276;49.534;6.378;2023-07-13T07:15:50;46.11;37.12;69.09;;
56099;Laerm;44276;49.534;6.378;2023-07-13T07:18:18;46.35;39.92;59.72;;
56099;Laerm;44276;49.534;6.378;2023-07-13T07:20:48;46.67;40.03;59.23;;
56099;Laerm;44276;49.534;6.378;2023-07-13T07:23:16;45.82;38.81;65.27;;
56099;Laerm;44276;49.534;6.378;2023-07-13T07:25:47;46.76;36.91;70.15;;
56099;Laerm;44276;49.534;6.378;2023-07-13T07:28:16;46.60;38.67;63.94;;
56099;Laerm;44276;49.534;6.378;2023-07-13T07:30:49;48.31;40.03;68.47;;
56099;Laerm;44276;49.534;6.378;2023-07-13T07:33:23;48.63;37.70;64.71;;
56099;Laerm;44276;49.534;6.378;2023-07-13T07:35:52;49.86;39.46;70.48;;
56099;Laerm;44276;49.534;6.378;2023-07-13T07:38:23;49.14;40.96;68.97;;
56099;Laerm;44276;49.534;6.378;2023-07-13T07:40:53;49.67;40.98;67.23;;
56099;Laerm;44276;49.534;6.378;2023-07-13T07:43:24;48.30;41.06;59.56;;
56099;Laerm;44276;49.534;6.378;2023-07-13T07:45:52;47.49;37.12;65.76;;
56099;Laerm;44276;49.534;6.378;2023-07-13T07:48:20;46.79;40.53;61.74;;
56099;Laerm;44276;49.534;6.378;2023-07-13T07:50:49;46.99;39.92;62.80;;
56099;Laerm;44276;49.534;6.378;2023-07-13T07:53:17;48.27;41.61;63.05;;
56099;Laerm;44276;49.534;6.378;2023-07-13T07:55:45;48.51;41.14;61.66;;
56099;Laerm;44276;49.534;6.378;2023-07-13T07:58:18;48.67;38.37;78.17;;
56099;Laerm;44276;49.534;6.378;2023-07-13T08:00:49;55.23;38.05;77.34;;
56099;Laerm;44276;49.534;6.378;2023-07-13T08:03:23;58.96;36.20;78.39;;
56099;Laerm;44276;49.534;6.378;2023-07-13T08:05:54;61.79;37.12;81.13;;
56099;Laerm;44276;49.534;6.378;2023-07-13T08:08:42;57.57;33.90;79.62;;
56099;Laerm;44276;49.534;6.378;2023-07-13T08:11:11;49.53;39.81;66.26;;
56099;Laerm;44276;49.534;6.378;2023-07-13T08:13:43;50.67;40.62;59.95;;
56099;Laerm;44276;49.534;6.378;2023-07-13T08:16:12;51.13;40.53;61.91;;
56099;Laerm;44276;49.534;6.378;2023-07-13T08:18:40;48.50;40.13;61.47;;
56099;Laerm;44276;49.534;6.378;2023-07-13T08:21:09;47.01;40.71;60.67;;
56099;Laerm;44276;49.534;6.378;2023-07-13T08:23:37;51.88;35.94;67.95;;
56099;Laerm;44276;49.534;6.378;2023-07-13T08:26:06;57.87;32.93;71.41;;
56099;Laerm;44276;49.534;6.378;2023-07-13T08:28:34;51.90;38.67;71.28;;
56099;Laerm;44276;49.534;6.378;2023-07-13T08:31:05;51.92;41.22;70.30;;
56099;Laerm;44276;49.534;6.378;2023-07-13T08:33:36;51.52;38.81;76.73;;
56099;Laerm;44276;49.534;6.378;2023-07-13T08:36:05;51.09;40.80;71.71;;
56099;Laerm;44276;49.534;6.378;2023-07-13T08:38:33;51.53;41.22;72.50;;
56099;Laerm;44276;49.534;6.378;2023-07-13T08:41:12;52.36;39.81;76.11;;
56099;Laerm;44276;49.534;6.378;2023-07-13T08:43:45;50.79;39.92;74.98;;
56099;Laerm;44276;49.534;6.378;2023-07-13T08:46:24;53.09;40.23;73.64;;
56099;Laerm;44276;49.534;6.378;2023-07-13T08:48:58;52.49;39.08;72.20;;
56099;Laerm;44276;49.534;6.378;2023-07-13T08:51:37;52.53;37.52;72.41;;
56099;Laerm;44276;49.534;6.378;2023-07-13T08:54:21;52.29;37.70;69.13;;
56099;Laerm;44276;49.534;6.378;2023-07-13T08:56:52;52.76;38.67;67.71;;
56099;Laerm;44276;49.534;6.378;2023-07-13T08:59:26;52.62;37.70;68.08;;
56099;Laerm;44276;49.534;6.378;2023-07-13T09:02:18;55.89;39.58;71.87;;
56099;Laerm;44276;49.534;6.378;2023-07-13T09:04:54;58.79;38.52;72.22;;
56099;Laerm;44276;49.534;6.378;2023-07-13T09:07:38;56.43;38.81;73.77;;
56099;Laerm;44276;49.534;6.378;2023-07-13T09:10:18;57.12;40.03;72.91;;
56099;Laerm;44276;49.534;6.378;2023-07-13T09:13:05;55.67;40.53;72.20;;
56099;Laerm;44276;49.534;6.378;2023-07-13T09:15:37;55.58;40.53;72.51;;
56099;Laerm;44276;49.534;6.378;2023-07-13T09:18:13;55.05;38.21;72.50;;
56099;Laerm;44276;49.534;6.378;2023-07-13T09:20:50;56.92;42.03;72.97;;
56099;Laerm;44276;49.534;6.378;2023-07-13T09:23:23;53.00;41.82;71.42;;
56099;Laerm;44276;49.534;6.378;2023-07-13T09:25:56;47.99;38.95;73.30;;
56099;Laerm;44276;49.534;6.378;2023-07-13T09:28:34;51.17;40.89;75.85;;
56099;Laerm;44276;49.534;6.378;2023-07-13T09:31:07;49.33;41.46;68.14;;
56099;Laerm;44276;49.534;6.378;2023-07-13T09:33:38;49.31;39.81;67.52;;
56099;Laerm;44276;49.534;6.378;2023-07-13T09:36:22;50.05;41.46;69.50;;
56099;Laerm;44276;49.534;6.378;2023-07-13T09:38:59;50.55;41.96;68.92;;
56099;Laerm;44276;49.534;6.378;2023-07-13T09:41:41;48.58;39.92;69.74;;
56099;Laerm;44276;49.534;6.378;2023-07-13T09:44:14;50.80;39.70;71.97;;
56099;Laerm;44276;49.534;6.378;2023-07-13T09:46:45;52.21;42.03;66.52;;
56099;Laerm;44276;49.534;6.378;2023-07-13T09:49:16;48.57;41.06;66.32;;
56099;Laerm;44276;49.534;6.378;2023-07-13T09:51:44;49.56;38.67;69.00;;
56099;Laerm;44276;49.534;6.378;2023-07-13T09:54:21;49.80;33.90;70.93;;
56099;Laerm;44276;49.534;6.378;2023-07-13T09:56:55;50.30;42.22;72.72;;
56099;Laerm;44276;49.534;6.378;2023-07-13T09:59:29;52.61;41.46;71.77;;
56099;Laerm;44276;49.534;6.378;2023-07-13T10:01:57;49.29;41.82;71.29;;
56099;Laerm;44276;49.534;6.378;2023-07-13T10:04:33;48.47;41.22;69.87;;
56099;Laerm;44276;49.534;6.378;2023-07-13T10:07:09;49.68;41.75;71.76;;
56099;Laerm;44276;49.534;6.378;2023-07-13T10:09:56;50.10;41.14;73.31;;
56099;Laerm;44276;49.534;6.378;2023-07-13T10:12:25;48.80;42.03;70.40;;
56099;Laerm;44276;49.534;6.378;2023-07-13T10:14:56;50.69;41.53;71.88;;
56099;Laerm;44276;49.534;6.378;2023-07-13T10:17:47;51.16;41.30;70.36;;
56099;Laerm;44276;49.534;6.378;2023-07-13T10:20:18;52.16;41.61;70.23;;
56099;Laerm;44276;49.534;6.378;2023-07-13T10:22:55;49.83;39.70;71.56;;
56099;Laerm;44276;49.534;6.378;2023-07-13T10:25:31;52.44;42.03;70.93;;
56099;Laerm;44276;49.534;6.378;2023-07-13T10:28:09;55.02;41.22;69.73;;
56099;Laerm;44276;49.534;6.378;2023-07-13T10:30:46;49.74;42.03;66.45;;
56099;Laerm;44276;49.534;6.378;2023-07-13T10:33:14;49.68;40.89;69.57;;
56099;Laerm;44276;49.534;6.378;2023-07-13T10:35:45;49.65;38.81;76.68;;
56099;Laerm;44276;49.534;6.378;2023-07-13T10:38:19;49.53;40.03;74.66;;
56099;Laerm;44276;49.534;6.378;2023-07-13T10:40:57;52.21;38.37;73.82;;
56099;Laerm;44276;49.534;6.378;2023-07-13T10:43:29;52.61;37.32;72.66;;
56099;Laerm;44276;49.534;6.378;2023-07-13T10:46:00;48.00;38.21;68.17;;
56099;Laerm;44276;49.534;6.378;2023-07-13T10:48:30;46.70;36.91;65.38;;
56099;Laerm;44276;49.534;6.378;2023-07-13T10:51:05;46.65;35.86;63.84;;
56099;Laerm;44276;49.534;6.378;2023-07-13T10:53:37;52.23;37.12;78.46;;
56099;Laerm;44276;49.534;6.378;2023-07-13T10:56:22;50.00;38.21;75.18;;
56099;Laerm;44276;49.534;6.378;2023-07-13T10:59:10;47.43;37.12;68.98;;
56099;Laerm;44276;49.534;6.378;2023-07-13T11:01:41;50.70;36.20;68.29;;
56099;Laerm;44276;49.534;6.378;2023-07-13T11:04:19;55.96;38.52;83.04;;
56099;Laerm;44276;49.534;6.378;2023-07-13T11:06:53;49.93;37.32;70.22;;
56099;Laerm;44276;49.534;6.378;2023-07-13T11:09:37;50.45;39.34;68.45;;
56099;Laerm;44276;49.534;6.378;2023-07-13T11:12:10;50.94;39.46;61.54;;
56099;Laerm;44276;49.534;6.378;2023-07-13T11:15:11;52.05;39.21;61.02;;
56099;Laerm;44276;49.534;6.378;2023-07-13T11:17:51;53.12;41.30;65.12;;
56099;Laerm;44276;49.534;6.378;2023-07-13T11:20:39;52.33;37.52;67.04;;
56099;Laerm;44276;49.534;6.378;2023-07-13T11:23:30;53.22;38.05;66.71;;
56099;Laerm;44276;49.534;6.378;2023-07-13T11:26:00;50.94;35.04;61.63;;
56099;Laerm;44276;49.534;6.378;2023-07-13T11:28:32;50.95;37.70;63.53;;
56099;Laerm;44276;49.534;6.378;2023-07-13T11:31:14;51.57;39.08;62.71;;
56099;Laerm;44276;49.534;6.378;2023-07-13T11:33:59;53.87;41.30;66.64;;
56099;Laerm;44276;49.534;6.378;2023-07-13T11:36:36;54.22;41.30;67.57;;
56099;Laerm;44276;49.534;6.378;2023-07-13T11:39:20;51.80;38.37;64.82;;
56099;Laerm;44276;49.534;6.378;2023-07-13T11:41:53;52.70;41.14;63.69;;
56099;Laerm;44276;49.534;6.378;2023-07-13T11:44:27;50.48;35.36;61.05;;
56099;Laerm;44276;49.534;6.378;2023-07-13T11:46:58;50.70;42.09;60.86;;
56099;Laerm;44276;49.534;6.378;2023-07-13T11:49:41;51.01;41.14;58.38;;
56099;Laerm;44276;49.534;6.378;2023-07-13T11:52:12;49.50;38.95;59.94;;
56099;Laerm;44276;49.534;6.378;2023-07-13T11:54:49;50.58;39.92;65.38;;
56099;Laerm;44276;49.534;6.378;2023-07-13T11:57:27;52.41;41.75;66.10;;
56099;Laerm;44276;49.534;6.378;2023-07-13T11:59:58;50.41;40.33;62.89;;
56099;Laerm;44276;49.534;6.378;2023-07-13T12:02:31;50.73;41.30;66.87;;
56099;Laerm;44276;49.534;6.378;2023-07-13T12:05:02;49.66;40.71;62.43;;
56099;Laerm;44276;49.534;6.378;2023-07-13T12:07:33;48.22;40.33;59.99;;
56099;Laerm;44276;49.534;6.378;2023-07-13T12:10:15;47.95;41.06;59.11;;
56099;Laerm;44276;49.534;6.378;2023-07-13T12:12:51;48.70;41.89;58.48;;
56099;Laerm;44276;49.534;6.378;2023-07-13T12:15:20;48.06;40.53;57.10;;
56099;Laerm;44276;49.534;6.378;2023-07-13T12:17:50;50.00;42.16;64.53;;
56099;Laerm;44276;49.534;6.378;2023-07-13T12:20:24;52.22;36.20;66.36;;
56099;Laerm;44276;49.534;6.378;2023-07-13T12:22:53;52.40;39.08;64.97;;
56099;Laerm;44276;49.534;6.378;2023-07-13T12:25:24;54.05;42.09;61.09;;
56099;Laerm;44276;49.534;6.378;2023-07-13T12:27:52;53.82;40.80;61.15;;
56099;Laerm;44276;49.534;6.378;2023-07-13T12:30:27;53.63;38.67;62.42;;
56099;Laerm;44276;49.534;6.378;2023-07-13T12:33:00;52.86;36.69;61.61;;
56099;Laerm;44276;49.534;6.378;2023-07-13T12:35:30;51.74;39.21;60.72;;
56099;Laerm;44276;49.534;6.378;2023-07-13T12:38:02;51.67;37.88;64.88;;
56099;Laerm;44276;49.534;6.378;2023-07-13T12:40:34;51.55;37.52;64.37;;
56099;Laerm;44276;49.534;6.378;2023-07-13T12:43:04;52.35;38.81;62.52;;
56099;Laerm;44276;49.534;6.378;2023-07-13T12:45:33;52.62;34.31;67.13;;
56099;Laerm;44276;49.534;6.378;2023-07-13T12:48:06;52.97;40.13;71.05;;
56099;Laerm;44276;49.534;6.378;2023-07-13T12:50:45;52.96;39.21;67.33;;
56099;Laerm;44276;49.534;6.378;2023-07-13T12:53:19;52.58;38.37;63.84;;
56099;Laerm;44276;49.534;6.378;2023-07-13T12:55:57;52.99;38.95;64.62;;
56099;Laerm;44276;49.534;6.378;2023-07-13T12:58:29;52.42;37.12;65.68;;
56099;Laerm;44276;49.534;6.378;2023-07-13T13:01:01;52.53;39.08;72.41;;
56099;Laerm;44276;49.534;6.378;2023-07-13T13:03:33;52.45;38.81;63.69;;
56099;Laerm;44276;49.534;6.378;2023-07-13T13:06:06;52.59;40.03;65.28;;
56099;Laerm;44276;49.534;6.378;2023-07-13T13:08:36;51.93;37.88;69.82;;
56099;Laerm;44276;49.534;6.378;2023-07-13T13:11:06;50.94;37.52;66.17;;
56099;Laerm;44276;49.534;6.378;2023-07-13T13:13:34;53.97;39.70;68.13;;
56099;Laerm;44276;49.534;6.378;2023-07-13T13:16:09;52.02;41.22;63.72;;
56099;Laerm;44276;49.534;6.378;2023-07-13T13:18:38;52.55;39.92;70.74;;
56099;Laerm;44276;49.534;6.378;2023-07-13T13:21:06;53.00;38.37;69.30;;
56099;Laerm;44276;49.534;6.378;2023-07-13T13:23:35;52.26;41.14;65.75;;
56099;Laerm;44276;49.534;6.378;2023-07-13T13:26:11;52.01;41.46;67.03;;
56099;Laerm;44276;49.534;6.378;2023-07-13T13:28:40;51.85;37.88;63.35;;
56099;Laerm;44276;49.534;6.378;2023-07-13T13:31:08;51.73;38.95;64.66;;
56099;Laerm;44276;49.534;6.378;2023-07-13T13:33:42;52.54;40.03;63.78;;
56099;Laerm;44276;49.534;6.378;2023-07-13T13:36:18;52.59;40.53;61.35;;
56099;Laerm;44276;49.534;6.378;2023-07-13T13:38:48;52.86;40.03;62.03;;
56099;Laerm;44276;49.534;6.378;2023-07-13T13:41:18;53.24;40.98;63.28;;
56099;Laerm;44276;49.534;6.378;2023-07-13T13:43:46;52.96;38.52;65.52;;
56099;Laerm;44276;49.534;6.378;2023-07-13T13:46:20;52.35;38.37;61.57;;
56099;Laerm;44276;49.534;6.378;2023-07-13T13:48:52;52.42;39.08;65.78;;
56099;Laerm;44276;49.534;6.378;2023-07-13T13:51:22;52.35;39.08;62.35;;
56099;Laerm;44276;49.534;6.378;2023-07-13T13:53:51;51.94;39.58;63.80;;
56099;Laerm;44276;49.534;6.378;2023-07-13T13:56:21;51.76;38.81;63.94;;
56099;Laerm;44276;49.534;6.378;2023-07-13T13:58:49;51.93;39.08;64.83;;
56099;Laerm;44276;49.534;6.378;2023-07-13T14:01:20;53.17;39.81;71.31;;
56099;Laerm;44276;49.534;6.378;2023-07-13T14:03:51;52.02;37.88;62.96;;
56099;Laerm;44276;49.534;6.378;2023-07-13T14:06:19;51.78;37.32;69.84;;
56099;Laerm;44276;49.534;6.378;2023-07-13T14:08:48;51.00;39.70;61.55;;